Time;durP1;ratioP1;P1;durP2;ratioP2;P2;SDS_P1;SDS_P2;PMS_P1;PMS_P2;Temp;Humidity;BMP_temperature;BMP_pressure;BME280_temperature;BME280_humidity;BME280_pressure;Samples;Min_cycle;Max_cycle;Signal;HPM_P1;HPM_P2
2022/06/11 00:03:19;;;;;;;6.40;5.20;;;;;12.20;96962.00;;;;8343415;28;20306;-68
2022/06/11 00:07:24;;;;;;;7.50;5.43;;;;;12.20;96958.00;;;;8352908;28;20904;-68
2022/06/11 00:11:29;;;;;;;8.68;5.78;;;;;12.10;96968.00;;;;8356148;28;20303;-69
2022/06/11 00:15:33;;;;;;;8.43;5.47;;;;;12.10;96960.00;;;;8344031;28;20551;-70
2022/06/11 00:19:38;;;;;;;13.23;6.10;;;;;12.00;96962.00;;;;8351344;28;20206;-70
2022/06/11 00:23:42;;;;;;;10.48;6.30;;;;;12.00;96966.00;;;;8353508;28;20204;-69
2022/06/11 00:27:45;;;;;;;6.22;5.38;;;;;11.90;96961.00;;;;8341277;28;20309;-70
2022/06/11 00:31:49;;;;;;;11.05;5.40;;;;;11.90;96957.00;;;;8352650;28;20201;-72
2022/06/11 00:35:54;;;;;;;10.33;5.63;;;;;11.90;96962.00;;;;8354347;28;20240;-71
2022/06/11 00:39:58;;;;;;;11.93;5.95;;;;;11.80;96951.00;;;;8344506;28;20664;-71
2022/06/11 00:44:01;;;;;;;11.30;5.65;;;;;11.70;96960.00;;;;8345196;28;20237;-71
2022/06/11 00:48:07;;;;;;;14.07;6.03;;;;;11.60;96953.00;;;;8346634;28;20266;-71
2022/06/11 00:52:38;;;;;;;13.40;6.15;;;;;11.50;96946.00;;;;8341369;28;20822;-71
2022/06/11 00:56:45;;;;;;;9.23;5.75;;;;;11.50;96939.00;;;;8334276;28;20200;-70
2022/06/11 01:00:53;;;;;;;9.80;6.00;;;;;11.50;96943.00;;;;8346479;28;20276;-70
2022/06/11 01:04:58;;;;;;;9.25;6.22;;;;;11.40;96935.00;;;;8338673;28;20220;-72
2022/06/11 01:09:08;;;;;;;8.93;5.35;;;;;11.40;96938.00;;;;8350086;28;20221;-73
2022/06/11 01:13:19;;;;;;;9.98;6.03;;;;;11.30;96929.00;;;;8349484;28;20243;-72
2022/06/11 01:17:29;;;;;;;7.93;5.63;;;;;11.20;96925.00;;;;8351325;28;20292;-68
2022/06/11 01:21:41;;;;;;;12.17;6.10;;;;;11.20;96920.00;;;;8335748;28;20213;-69
2022/06/11 01:25:54;;;;;;;12.77;5.82;;;;;11.10;96923.00;;;;8352120;28;20323;-70
2022/06/11 01:30:00;;;;;;;10.77;6.37;;;;;11.10;96926.00;;;;8344654;28;20586;-70
2022/06/11 01:34:12;;;;;;;9.50;5.60;;;;;11.10;96925.00;;;;8349444;28;20215;-71
2022/06/11 01:38:21;;;;;;;10.87;5.60;;;;;11.00;96927.00;;;;8351664;28;20295;-70
2022/06/11 01:42:30;;;;;;;14.97;6.53;;;;;10.90;96931.00;;;;8345705;28;20320;-72
2022/06/11 01:46:37;;;;;;;8.40;5.70;;;;;10.90;96920.00;;;;8348579;28;20232;-69
2022/06/11 01:50:44;;;;;;;9.53;5.80;;;;;10.80;96924.00;;;;8354304;28;20308;-70
2022/06/11 01:54:56;;;;;;;6.63;5.50;;;;;10.80;96919.00;;;;8349838;28;20196;-69
2022/06/11 01:59:24;;;;;;;7.70;5.47;;;;;10.80;96925.00;;;;8346878;28;20196;-70
2022/06/11 02:03:37;;;;;;;7.50;6.13;;;;;10.70;96924.00;;;;8345613;28;20678;-71
2022/06/11 02:07:46;;;;;;;10.90;6.27;;;;;10.60;96927.00;;;;8348044;28;20221;-70
2022/06/11 02:11:53;;;;;;;16.17;6.57;;;;;10.60;96930.00;;;;8356014;28;20201;-70
2022/06/11 02:16:02;;;;;;;11.17;6.20;;;;;10.60;96927.00;;;;8352581;28;20284;-72
2022/06/11 02:20:12;;;;;;;13.67;6.17;;;;;10.60;96934.00;;;;8357034;28;20650;-70
2022/06/11 02:24:22;;;;;;;14.23;5.87;;;;;10.50;96939.00;;;;8354910;28;20295;-71
2022/06/11 02:28:30;;;;;;;13.37;5.50;;;;;10.50;96939.00;;;;8344542;28;20237;-73
2022/06/11 02:32:33;;;;;;;13.30;6.23;;;;;10.40;96933.00;;;;8351776;28;20201;-70
2022/06/11 02:36:54;;;;;;;10.37;5.87;;;;;10.40;96936.00;;;;8350650;28;20614;-70
2022/06/11 02:41:00;;;;;;;13.13;6.20;;;;;10.30;96936.00;;;;8352519;28;20554;-71
2022/06/11 02:45:04;;;;;;;12.38;6.03;;;;;10.30;96939.00;;;;8351476;28;21105;-70
2022/06/11 02:49:08;;;;;;;11.87;5.93;;;;;10.30;96936.00;;;;8344863;28;21090;-71
2022/06/11 02:53:13;;;;;;;10.03;6.10;;;;;10.20;96940.00;;;;8351882;28;20569;-73
2022/06/11 02:57:20;;;;;;;10.83;6.70;;;;;10.20;96948.00;;;;8352911;28;20193;-70
2022/06/11 03:01:25;;;;;;;10.83;6.50;;;;;10.10;96950.00;;;;8395721;23;20260;-70
2022/06/11 03:05:32;;;;;;;14.33;6.47;;;;;10.20;96953.00;;;;8279039;28;20664;-72
2022/06/11 03:09:38;;;;;;;10.27;6.23;;;;;10.20;96959.00;;;;8286833;28;20288;-69
2022/06/11 03:13:42;;;;;;;15.53;6.73;;;;;10.10;96953.00;;;;8280768;28;20239;-71
2022/06/11 03:17:47;;;;;;;10.13;6.40;;;;;10.20;96962.00;;;;8291025;28;20635;-70
2022/06/11 03:21:53;;;;;;;10.50;6.60;;;;;10.20;96957.00;;;;8288955;28;20284;-71
2022/06/11 03:25:58;;;;;;;14.87;6.47;;;;;10.20;96966.00;;;;8287247;28;20293;-70
2022/06/11 03:30:01;;;;;;;12.97;7.20;;;;;10.20;96973.00;;;;8285151;28;20230;-73
2022/06/11 03:34:04;;;;;;;14.57;6.73;;;;;10.20;96975.00;;;;8284667;28;20632;-70
2022/06/11 03:38:08;;;;;;;11.53;6.50;;;;;10.20;96976.00;;;;8287160;28;20202;-71
2022/06/11 03:42:13;;;;;;;11.60;7.00;;;;;10.30;96983.00;;;;8286942;28;20213;-72
2022/06/11 03:46:17;;;;;;;11.20;6.77;;;;;10.50;96982.00;;;;8278328;28;20683;-71
2022/06/11 03:50:25;;;;;;;11.70;6.77;;;;;10.80;96979.00;;;;8283670;28;20209;-71
2022/06/11 03:54:28;;;;;;;9.47;6.13;;;;;11.00;96984.00;;;;8283514;28;20206;-71
2022/06/11 03:58:33;;;;;;;14.43;6.60;;;;;11.20;96990.00;;;;8287349;28;20210;-71
2022/06/11 04:02:37;;;;;;;14.35;6.75;;;;;11.60;96992.00;;;;8282806;28;20244;-71
2022/06/11 04:06:43;;;;;;;12.88;6.70;;;;;12.20;96996.00;;;;8279522;28;20697;-72
2022/06/11 04:10:47;;;;;;;10.52;6.80;;;;;12.80;96999.00;;;;8278664;28;20202;-71
2022/06/11 04:14:52;;;;;;;8.35;5.82;;;;;13.50;96998.00;;;;8279060;28;20201;-71
2022/06/11 04:18:58;;;;;;;6.00;5.15;;;;;14.10;96998.00;;;;8268908;28;20230;-71
2022/06/11 04:23:02;;;;;;;6.43;5.40;;;;;14.70;97008.00;;;;8264250;28;20658;-71
2022/06/11 04:27:08;;;;;;;5.72;5.03;;;;;15.30;97014.00;;;;8275216;28;20234;-67
2022/06/11 04:31:15;;;;;;;5.18;4.40;;;;;15.90;97015.00;;;;8269849;28;20204;-74
2022/06/11 04:35:21;;;;;;;5.45;4.50;;;;;16.60;97016.00;;;;8265418;28;20205;-67
2022/06/11 04:39:28;;;;;;;7.88;4.70;;;;;17.00;97021.00;;;;8282275;28;20217;-72
2022/06/11 04:43:31;;;;;;;7.13;4.60;;;;;17.50;97014.00;;;;8272176;28;20201;-70
2022/06/11 04:47:36;;;;;;;5.22;4.72;;;;;17.90;97010.00;;;;8266621;28;20280;-70
2022/06/11 04:51:40;;;;;;;8.05;4.63;;;;;18.20;97018.00;;;;8261722;28;20794;-71
2022/06/11 04:55:43;;;;;;;8.05;5.55;;;;;18.00;97020.00;;;;8265188;28;20676;-69
2022/06/11 04:59:47;;;;;;;7.60;4.65;;;;;18.00;97020.00;;;;8270701;28;20236;-70
2022/06/11 05:03:52;;;;;;;6.90;4.85;;;;;18.20;97021.00;;;;8273163;28;20249;-68
2022/06/11 05:07:57;;;;;;;7.32;5.10;;;;;18.40;97024.00;;;;8270693;28;20649;-69
2022/06/11 05:12:01;;;;;;;5.13;4.63;;;;;18.50;97027.00;;;;8278628;28;20640;-69
2022/06/11 05:16:05;;;;;;;5.95;4.72;;;;;18.40;97020.00;;;;8271999;28;20454;-68
2022/06/11 05:20:11;;;;;;;6.75;4.63;;;;;18.60;97027.00;;;;8276570;28;20194;-70
2022/06/11 05:24:14;;;;;;;5.22;4.00;;;;;19.00;97027.00;;;;8282382;28;20202;-70
2022/06/11 05:28:28;;;;;;;6.18;4.47;;;;;19.30;97022.00;;;;8282791;28;20233;-69
2022/06/11 05:32:35;;;;;;;5.57;4.40;;;;;19.70;97028.00;;;;8282525;28;20640;-68
2022/06/11 05:36:40;;;;;;;7.40;4.20;;;;;20.10;97028.00;;;;8267618;28;20194;-69
2022/06/11 05:40:44;;;;;;;7.15;3.95;;;;;20.70;97038.00;;;;8282063;28;20206;-69
2022/06/11 05:44:48;;;;;;;5.03;4.10;;;;;21.50;97043.00;;;;8278434;28;20277;-68
2022/06/11 05:48:58;;;;;;;7.10;4.70;;;;;22.20;97046.00;;;;8279975;28;20269;-69
2022/06/11 05:53:04;;;;;;;7.90;4.03;;;;;22.80;97046.00;;;;8275981;28;20205;-69
2022/06/11 05:57:11;;;;;;;5.25;3.85;;;;;23.40;97040.00;;;;8281909;28;20286;-71
2022/06/11 06:01:16;;;;;;;9.45;4.15;;;;;24.10;97042.00;;;;8271082;28;20306;-71
2022/06/11 06:05:24;;;;;;;6.13;4.57;;;;;24.80;97042.00;;;;8271781;28;20209;-69
2022/06/11 06:09:29;;;;;;;8.63;4.38;;;;;25.40;97043.00;;;;8271026;28;20226;-70
2022/06/11 06:13:48;;;;;;;5.00;4.40;;;;;26.00;97044.00;;;;8278392;28;20281;-68
2022/06/11 06:17:52;;;;;;;7.35;4.60;;;;;26.40;97040.00;;;;8273299;28;20632;-69
2022/06/11 06:21:55;;;;;;;5.82;5.00;;;;;26.60;97049.00;;;;8272472;28;20195;-69
2022/06/11 06:26:00;;;;;;;5.40;4.90;;;;;26.70;97051.00;;;;8281521;28;20203;-70
2022/06/11 06:30:03;;;;;;;5.57;4.22;;;;;26.70;97053.00;;;;8287676;28;20251;-70
2022/06/11 06:34:06;;;;;;;8.90;3.85;;;;;27.00;97064.00;;;;8281023;28;20208;-70
2022/06/11 06:38:10;;;;;;;6.90;4.22;;;;;27.50;97068.00;;;;8272735;28;20206;-69
2022/06/11 06:42:14;;;;;;;6.75;3.80;;;;;27.70;97070.00;;;;8269225;28;20219;-68
2022/06/11 06:46:19;;;;;;;7.70;4.07;;;;;27.50;97070.00;;;;8278884;28;20213;-67
2022/06/11 06:50:23;;;;;;;5.57;3.85;;;;;27.40;97075.00;;;;8276566;28;20310;-67
2022/06/11 06:54:26;;;;;;;4.85;3.88;;;;;27.80;97064.00;;;;8272781;28;20305;-68
2022/06/11 06:58:31;;;;;;;4.43;4.03;;;;;28.00;97071.00;;;;8280682;28;20216;-71
2022/06/11 07:02:34;;;;;;;3.42;3.22;;;;;28.30;97069.00;;;;8268148;28;20225;-68
2022/06/11 07:06:38;;;;;;;3.50;3.05;;;;;28.50;97074.00;;;;8279872;28;20962;-70
2022/06/11 07:10:41;;;;;;;6.32;2.80;;;;;28.90;97077.00;;;;8267761;28;20237;-70
2022/06/11 07:14:46;;;;;;;2.85;2.35;;;;;29.30;97071.00;;;;8264889;28;20294;-69
2022/06/11 07:18:52;;;;;;;3.85;2.35;;;;;29.70;97074.00;;;;8262615;28;20226;-71
2022/06/11 07:22:58;;;;;;;5.97;2.15;;;;;29.80;97076.00;;;;8278571;28;20735;-69
2022/06/11 07:27:05;;;;;;;6.60;1.90;;;;;30.00;97069.00;;;;8270681;28;20302;-70
2022/06/11 07:31:10;;;;;;;3.03;2.10;;;;;30.10;97066.00;;;;8267370;28;20226;-69
2022/06/11 07:35:17;;;;;;;2.38;2.08;;;;;30.40;97074.00;;;;8274058;28;20238;-68
2022/06/11 07:39:20;;;;;;;3.63;2.15;;;;;31.00;97071.00;;;;8266767;28;20206;-69
2022/06/11 07:43:23;;;;;;;2.13;1.60;;;;;31.40;97070.00;;;;8275930;28;20891;-70
2022/06/11 07:51:56;;;;;;;4.28;2.10;;;;;32.30;97076.00;;;;8270569;28;20208;-69
2022/06/11 07:55:59;;;;;;;4.00;1.42;;;;;32.90;97077.00;;;;8270301;28;20205;-71
2022/06/11 08:00:04;;;;;;;1.80;1.70;;;;;33.10;97073.00;;;;8276862;28;20213;-70
2022/06/11 08:04:09;;;;;;;2.35;1.40;;;;;33.10;97080.00;;;;8279784;28;20336;-70
2022/06/11 08:08:13;;;;;;;1.63;1.52;;;;;33.60;97080.00;;;;8276397;28;20304;-68
2022/06/11 08:12:16;;;;;;;2.90;1.40;;;;;33.90;97077.00;;;;8277564;28;20807;-70
2022/06/11 08:16:19;;;;;;;3.50;1.55;;;;;34.10;97082.00;;;;8271344;28;20202;-69
2022/06/11 08:20:26;;;;;;;1.40;1.30;;;;;34.30;97076.00;;;;8274954;28;20194;-69
2022/06/11 08:24:29;;;;;;;1.60;1.50;;;;;34.80;97086.00;;;;8285716;28;20250;-69
2022/06/11 08:28:33;;;;;;;4.55;1.80;;;;;35.10;97077.00;;;;8272556;28;20234;-70
2022/06/11 08:32:36;;;;;;;2.33;1.60;;;;;35.20;97078.00;;;;8269096;28;20302;-73
2022/06/11 08:36:41;;;;;;;2.75;1.50;;;;;35.20;97076.00;;;;8279245;28;20260;-67
2022/06/11 08:40:46;;;;;;;2.80;1.85;;;;;35.70;97075.00;;;;8266750;28;20919;-70
2022/06/11 08:44:49;;;;;;;4.45;1.75;;;;;35.80;97072.00;;;;8271737;28;20294;-70
2022/06/11 08:49:02;;;;;;;3.03;1.90;;;;;36.20;97079.00;;;;8273495;28;20249;-70
2022/06/11 08:53:08;;;;;;;3.45;1.90;;;;;36.30;97073.00;;;;8269316;28;20198;-70
2022/06/11 08:57:20;;;;;;;6.35;1.92;;;;;35.70;97076.00;;;;8269032;28;20211;-70
2022/06/11 09:01:32;;;;;;;2.40;1.50;;;;;35.30;97069.00;;;;8291763;28;20285;-71
2022/06/11 09:05:55;;;;;;;1.55;1.42;;;;;34.60;97077.00;;;;8280415;28;20282;-69
2022/06/11 09:10:10;;;;;;;1.55;1.45;;;;;33.50;97071.00;;;;8274155;28;20661;-69
2022/06/11 09:14:27;;;;;;;4.35;2.03;;;;;32.20;97074.00;;;;8276843;28;20198;-71
2022/06/11 09:19:06;;;;;;;9.90;1.92;;;;;31.40;97070.00;;;;8267169;28;20199;-70
2022/06/11 09:23:40;;;;;;;8.15;2.15;;;;;30.50;97076.00;;;;8260002;28;20305;-71
2022/06/11 09:27:50;;;;;;;2.05;1.30;;;;;30.20;97072.00;;;;8278454;28;20314;-70
2022/06/11 09:32:00;;;;;;;3.20;1.83;;;;;30.20;97074.00;;;;8281737;28;20305;-69
2022/06/11 09:36:07;;;;;;;2.45;1.60;;;;;31.20;97069.00;;;;8271435;28;20238;-69
2022/06/11 09:40:19;;;;;;;4.78;1.55;;;;;33.20;97072.00;;;;8273987;28;21006;-69
2022/06/11 09:44:35;;;;;;;3.05;1.52;;;;;34.70;97071.00;;;;8279612;28;20659;-69
2022/06/11 09:48:51;;;;;;;3.58;1.60;;;;;33.30;97078.00;;;;8290319;28;20241;-70
2022/06/11 09:53:05;;;;;;;3.67;1.73;;;;;32.50;97070.00;;;;8273556;28;20306;-68
2022/06/11 09:57:30;;;;;;;1.65;1.55;;;;;33.10;97069.00;;;;8279710;28;20214;-70
2022/06/11 10:01:44;;;;;;;12.05;8.80;;;;;34.70;97069.00;;;;8280951;28;20566;-75
2022/06/11 10:05:52;;;;;;;10.80;7.38;;;;;34.50;97067.00;;;;8276860;28;20250;-74
2022/06/11 10:09:59;;;;;;;2.70;2.20;;;;;35.50;97071.00;;;;8283713;28;20601;-69
2022/06/11 10:18:32;;;;;;;5.50;3.42;;;;;38.50;97072.00;;;;8277664;28;20217;-69
2022/06/11 10:22:43;;;;;;;3.00;1.67;;;;;38.70;97079.00;;;;8278481;28;20210;-69
2022/06/11 10:26:52;;;;;;;11.15;8.63;;;;;38.00;97070.00;;;;8269731;28;20312;-68
2022/06/11 10:31:01;;;;;;;3.38;2.65;;;;;36.40;97069.00;;;;8271160;28;20725;-70
2022/06/11 10:35:17;;;;;;;3.28;1.63;;;;;34.60;97072.00;;;;8278175;28;20662;-70
2022/06/11 10:39:27;;;;;;;1.90;1.48;;;;;33.30;97068.00;;;;8279552;28;20209;-68
2022/06/11 10:43:35;;;;;;;4.28;1.63;;;;;32.40;97065.00;;;;8278320;28;20236;-68
2022/06/11 10:47:42;;;;;;;1.98;1.60;;;;;33.00;97063.00;;;;8276195;28;20237;-71
2022/06/11 10:51:58;;;;;;;3.75;1.30;;;;;33.40;97058.00;;;;8276062;28;20337;-69
2022/06/11 10:56:05;;;;;;;2.33;1.40;;;;;33.40;97057.00;;;;8275819;28;20285;-68
2022/06/11 11:00:23;;;;;;;2.00;1.80;;;;;33.70;97062.00;;;;8283257;28;20876;-69
2022/06/11 11:04:38;;;;;;;3.05;1.60;;;;;33.50;97055.00;;;;8273343;28;20241;-71
2022/06/11 11:08:52;;;;;;;2.28;1.65;;;;;33.60;97057.00;;;;8276725;28;20245;-69
2022/06/11 11:12:59;;;;;;;1.95;1.60;;;;;33.50;97054.00;;;;8273326;28;20217;-69
2022/06/11 11:17:04;;;;;;;1.50;1.40;;;;;33.00;97050.00;;;;8284820;28;20202;-68
2022/06/11 11:21:17;;;;;;;2.78;1.60;;;;;32.60;97051.00;;;;8273368;28;20667;-68
2022/06/11 11:25:29;;;;;;;2.90;1.55;;;;;32.40;97049.00;;;;8276546;28;20206;-68
2022/06/11 11:29:35;;;;;;;2.30;1.50;;;;;31.90;97052.00;;;;8274531;28;20583;-70
2022/06/11 11:33:57;;;;;;;5.95;1.88;;;;;31.10;97051.00;;;;8280519;28;20285;-68
2022/06/11 11:38:04;;;;;;;1.58;1.42;;;;;30.20;97053.00;;;;8280111;28;20602;-69
2022/06/11 11:42:14;;;;;;;2.78;1.88;;;;;29.90;97043.00;;;;8272878;28;21978;-67
2022/06/11 11:46:21;;;;;;;1.88;1.63;;;;;30.90;97044.00;;;;8276216;28;20199;-66
2022/06/11 11:50:28;;;;;;;1.67;1.58;;;;;33.20;97045.00;;;;8273493;28;20571;-69
2022/06/11 11:54:33;;;;;;;1.95;1.50;;;;;34.90;97041.00;;;;8274527;28;20230;-71
2022/06/11 11:58:42;;;;;;;2.75;2.00;;;;;36.30;97046.00;;;;8276592;28;20747;-69
2022/06/11 12:02:48;;;;;;;1.85;1.67;;;;;37.70;97042.00;;;;8269634;28;20236;-69
2022/06/11 12:06:55;;;;;;;3.38;1.65;;;;;38.80;97035.00;;;;8271012;28;20285;-69
2022/06/11 12:11:02;;;;;;;2.30;1.45;;;;;38.90;97036.00;;;;8272566;28;20352;-67
2022/06/11 12:15:18;;;;;;;1.70;1.60;;;;;38.80;97034.00;;;;8272983;28;20602;-67
2022/06/11 12:19:28;;;;;;;3.10;1.63;;;;;36.90;97044.00;;;;8273020;28;20285;-68
2022/06/11 12:23:39;;;;;;;3.15;1.65;;;;;36.30;97032.00;;;;8271085;28;20230;-67
2022/06/11 12:27:42;;;;;;;1.85;1.70;;;;;36.70;97026.00;;;;8277967;28;20229;-69
2022/06/11 12:31:48;;;;;;;2.33;1.50;;;;;38.00;97030.00;;;;8273564;28;20235;-69
2022/06/11 12:35:56;;;;;;;1.45;1.33;;;;;38.50;97020.00;;;;8277406;28;20792;-68
2022/06/11 12:40:06;;;;;;;2.17;1.42;;;;;38.40;97025.00;;;;8270853;28;20821;-67
2022/06/11 12:44:27;;;;;;;2.25;1.63;;;;;37.80;97021.00;;;;8265614;28;20205;-70
2022/06/11 12:48:46;;;;;;;3.15;1.42;;;;;37.60;97022.00;;;;8257660;28;20683;-67
2022/06/11 12:52:57;;;;;;;1.30;1.30;;;;;36.70;97020.00;;;;8264004;28;20321;-68
2022/06/11 12:57:23;;;;;;;3.15;1.58;;;;;35.40;97014.00;;;;8265058;28;20233;-69
2022/06/11 13:01:36;;;;;;;4.72;1.40;;;;;34.60;97009.00;;;;8264466;28;20196;-70
2022/06/11 13:06:11;;;;;;;1.40;1.30;;;;;34.20;97012.00;;;;8277137;28;20198;-68
2022/06/11 13:10:28;;;;;;;1.60;1.50;;;;;34.30;97010.00;;;;8271322;28;20305;-70
2022/06/11 13:14:52;;;;;;;2.55;1.40;;;;;34.70;97009.00;;;;8268858;28;20206;-70
2022/06/11 13:19:09;;;;;;;2.35;1.60;;;;;35.50;96997.00;;;;8271563;28;20202;-68
2022/06/11 13:23:22;;;;;;;1.35;1.25;;;;;35.90;97002.00;;;;8266949;28;20209;-68
2022/06/11 13:27:39;;;;;;;2.65;1.40;;;;;36.20;96993.00;;;;8277052;28;20217;-69
2022/06/11 13:31:49;;;;;;;4.53;1.85;;;;;37.10;96989.00;;;;8273156;28;20579;-68
2022/06/11 13:35:59;;;;;;;1.40;1.30;;;;;37.50;96992.00;;;;8254595;28;20210;-70
2022/06/11 13:40:28;;;;;;;1.98;1.50;;;;;38.60;96990.00;;;;8269985;28;20222;-68
2022/06/11 13:44:52;;;;;;;2.22;1.40;;;;;38.10;96990.00;;;;8273022;28;20294;-68
2022/06/11 13:49:06;;;;;;;1.58;1.48;;;;;38.10;96989.00;;;;8274541;28;20198;-69
2022/06/11 13:58:09;;;;;;;2.80;1.40;;;;;38.30;96987.00;;;;8274622;28;20238;-68
2022/06/11 14:02:39;;;;;;;1.83;1.50;;;;;38.60;96982.00;;;;8282838;28;20238;-68
2022/06/11 14:06:43;;;;;;;2.08;1.13;;;;;38.70;96981.00;;;;8273247;28;20206;-69
2022/06/11 14:10:48;;;;;;;2.17;1.58;;;;;38.70;96977.00;;;;8272654;28;20718;-68
2022/06/11 14:15:27;;;;;;;2.58;1.40;;;;;38.50;96979.00;;;;8272990;28;20220;-68
2022/06/11 14:19:42;;;;;;;3.03;1.60;;;;;38.50;96977.00;;;;8279637;28;20213;-69
2022/06/11 14:23:51;;;;;;;2.05;1.60;;;;;38.80;96970.00;;;;8276132;28;20214;-71
2022/06/11 14:27:55;;;;;;;3.97;1.48;;;;;39.70;96977.00;;;;8275561;28;20210;-69
2022/06/11 14:32:25;;;;;;;5.15;1.73;;;;;39.50;96969.00;;;;8276567;28;20231;-69
2022/06/11 14:36:30;;;;;;;2.63;1.60;;;;;39.90;96971.00;;;;8276385;28;20643;-68
2022/06/11 14:40:35;;;;;;;6.18;1.95;;;;;39.90;96972.00;;;;8273402;28;20297;-70
2022/06/11 14:44:39;;;;;;;2.47;1.60;;;;;40.10;96969.00;;;;8281791;28;20907;-68
2022/06/11 14:48:59;;;;;;;3.50;1.40;;;;;40.20;96968.00;;;;8274054;28;20202;-70
2022/06/11 14:53:10;;;;;;;2.83;1.60;;;;;40.60;96962.00;;;;8280902;28;20238;-69
2022/06/11 14:57:31;;;;;;;1.65;1.40;;;;;40.60;96967.00;;;;8280530;28;20559;-70
2022/06/11 15:01:52;;;;;;;1.90;1.35;;;;;40.50;96960.00;;;;8271172;28;20690;-71
2022/06/11 15:06:30;;;;;;;1.45;1.45;;;;;40.20;96954.00;;;;8277043;28;20609;-72
2022/06/11 15:10:38;;;;;;;3.90;1.40;;;;;39.30;96951.00;;;;8275845;28;20220;-70
2022/06/11 15:15:02;;;;;;;1.50;1.40;;;;;38.10;96959.00;;;;8273462;28;20290;-70
2022/06/11 15:19:11;;;;;;;2.90;1.42;;;;;37.00;96955.00;;;;8278311;28;20290;-71
2022/06/11 15:23:19;;;;;;;2.67;1.20;;;;;36.10;96955.00;;;;8269075;28;20230;-70
2022/06/11 15:27:25;;;;;;;2.45;1.60;;;;;35.70;96946.00;;;;8271652;28;20238;-71
2022/06/11 15:31:28;;;;;;;1.42;1.33;;;;;35.50;96948.00;;;;8277617;28;20520;-70
2022/06/11 15:35:37;;;;;;;1.88;1.23;;;;;35.80;96941.00;;;;8275155;28;20685;-72
2022/06/11 15:39:45;;;;;;;2.55;1.67;;;;;36.20;96950.00;;;;8274997;28;20194;-71
2022/06/11 15:43:52;;;;;;;4.15;1.60;;;;;36.60;96943.00;;;;8283696;28;20568;-71
2022/06/11 15:47:59;;;;;;;1.55;1.45;;;;;37.10;96944.00;;;;8273694;28;20230;-71
2022/06/11 15:52:23;;;;;;;3.70;1.63;;;;;37.30;96934.00;;;;8286838;28;20224;-71
2022/06/11 15:56:31;;;;;;;1.70;1.60;;;;;37.50;96938.00;;;;8277647;28;20202;-71
2022/06/11 16:00:38;;;;;;;1.27;1.25;;;;;37.40;96943.00;;;;8279903;28;20289;-72
2022/06/11 16:04:49;;;;;;;3.17;1.60;;;;;37.20;96943.00;;;;8263073;28;20313;-70
2022/06/11 16:08:56;;;;;;;1.98;1.63;;;;;36.20;96941.00;;;;8280085;28;20230;-71
2022/06/11 16:13:01;;;;;;;1.60;1.50;;;;;36.10;96948.00;;;;8271238;28;20230;-71
2022/06/11 16:17:07;;;;;;;2.88;1.50;;;;;36.10;96943.00;;;;8275479;28;20222;-70
2022/06/11 16:21:24;;;;;;;1.27;1.27;;;;;36.50;96940.00;;;;8271632;28;20707;-70
2022/06/11 16:25:43;;;;;;;2.40;1.30;;;;;36.80;96946.00;;;;8267354;28;20198;-70
2022/06/11 16:29:51;;;;;;;2.38;1.38;;;;;36.50;96940.00;;;;8277059;28;20278;-70
2022/06/11 16:33:56;;;;;;;1.63;1.52;;;;;36.70;96940.00;;;;8273015;28;20802;-70
2022/06/11 16:38:00;;;;;;;1.63;1.40;;;;;37.40;96927.00;;;;8275661;28;20198;-70
2022/06/11 16:46:27;;;;;;;1.40;1.30;;;;;37.10;96947.00;;;;8267578;28;20202;-71
2022/06/11 16:59:19;;;;;;;1.63;1.52;;;;;37.20;96934.00;;;;8279279;28;20206;-72
2022/06/11 17:03:24;;;;;;;4.47;1.77;;;;;37.30;96934.00;;;;8281048;28;20244;-69
2022/06/11 17:07:33;;;;;;;2.58;1.52;;;;;37.50;96947.00;;;;8274974;28;20206;-71
2022/06/11 17:11:36;;;;;;;1.58;1.50;;;;;37.60;96941.00;;;;8265774;28;20800;-72
2022/06/11 17:15:40;;;;;;;4.35;1.88;;;;;37.70;96943.00;;;;8274273;28;20731;-71
2022/06/11 17:19:51;;;;;;;1.48;1.38;;;;;37.30;96936.00;;;;8284994;28;20281;-72
2022/06/11 17:23:59;;;;;;;3.05;1.70;;;;;37.20;96940.00;;;;8283560;28;20190;-71
2022/06/11 17:28:03;;;;;;;2.28;1.70;;;;;37.20;96943.00;;;;8272912;28;20198;-72
2022/06/11 17:32:13;;;;;;;2.88;1.70;;;;;37.20;96941.00;;;;8282204;28;20242;-71
2022/06/11 17:36:18;;;;;;;1.58;1.40;;;;;37.00;96940.00;;;;8280240;28;20202;-71
2022/06/11 17:40:24;;;;;;;2.92;1.67;;;;;37.00;96943.00;;;;8289999;28;20774;-71
2022/06/11 17:44:31;;;;;;;2.00;1.80;;;;;36.80;96945.00;;;;8277680;28;20206;-71
2022/06/11 17:48:34;;;;;;;2.35;1.67;;;;;36.70;96946.00;;;;8280539;28;20285;-71
2022/06/11 17:52:43;;;;;;;2.10;1.55;;;;;35.70;96945.00;;;;8291455;28;20262;-71
2022/06/11 17:56:46;;;;;;;1.92;1.80;;;;;34.50;96947.00;;;;8275814;28;20548;-71
2022/06/11 18:00:49;;;;;;;2.83;1.50;;;;;33.20;96950.00;;;;8272775;28;21420;-71
2022/06/11 18:04:53;;;;;;;2.08;1.88;;;;;31.90;96949.00;;;;8282454;28;20234;-72
2022/06/11 18:08:57;;;;;;;3.85;1.92;;;;;30.80;96953.00;;;;8280212;28;20194;-72
2022/06/11 18:13:01;;;;;;;3.25;1.92;;;;;29.80;96956.00;;;;8284564;28;20258;-72
2022/06/11 18:17:06;;;;;;;3.30;2.10;;;;;28.90;96955.00;;;;8275889;28;20663;-72
2022/06/11 18:25:16;;;;;;;1.88;1.70;;;;;28.00;96948.00;;;;8290105;28;20206;-72
2022/06/11 18:25:35;;;;;;;4.32;2.10;;;;;27.10;96954.00;;;;8282907;28;20225;-72
2022/06/11 18:29:40;;;;;;;4.45;1.80;;;;;26.50;96955.00;;;;8279471;28;20277;-71
2022/06/11 18:33:43;;;;;;;3.40;1.70;;;;;25.90;96956.00;;;;8287907;28;20240;-72
2022/06/11 18:37:47;;;;;;;2.63;1.60;;;;;25.30;96952.00;;;;8274448;28;20857;-72
2022/06/11 18:41:51;;;;;;;3.17;1.80;;;;;24.90;96959.00;;;;8276204;28;20202;-72
2022/06/11 18:45:54;;;;;;;2.10;1.90;;;;;24.50;96958.00;;;;8288381;28;20724;-72
2022/06/11 18:49:58;;;;;;;3.30;1.85;;;;;24.10;96958.00;;;;8284239;28;20199;-72
2022/06/11 18:54:01;;;;;;;2.40;1.95;;;;;23.80;96960.00;;;;8283091;28;20225;-71
2022/06/11 18:58:06;;;;;;;2.75;2.17;;;;;23.50;96955.00;;;;8277089;28;20724;-72
2022/06/11 19:02:10;;;;;;;3.55;2.38;;;;;23.10;96959.00;;;;8266106;28;20647;-72
2022/06/11 19:06:14;;;;;;;2.80;1.90;;;;;22.70;96956.00;;;;8276800;28;20257;-71
2022/06/11 19:10:18;;;;;;;5.97;2.13;;;;;22.40;96956.00;;;;8273672;28;20286;-71
2022/06/11 19:14:23;;;;;;;4.18;2.55;;;;;22.10;96961.00;;;;8273994;28;20238;-71
2022/06/11 19:18:26;;;;;;;2.88;2.60;;;;;21.80;96957.00;;;;8270778;28;20206;-70
2022/06/11 19:22:29;;;;;;;3.92;3.15;;;;;21.60;96953.00;;;;8268547;28;20842;-72
2022/06/11 19:26:32;;;;;;;3.08;2.88;;;;;21.30;96952.00;;;;8269847;28;20214;-72
2022/06/11 19:30:38;;;;;;;6.00;3.10;;;;;20.90;96951.00;;;;8265709;28;20282;-73
2022/06/11 19:34:42;;;;;;;3.03;2.78;;;;;20.60;96960.00;;;;8273420;28;20639;-71
2022/06/11 19:38:49;;;;;;;2.60;2.40;;;;;20.30;96960.00;;;;8271963;28;20563;-71
2022/06/11 19:42:57;;;;;;;4.20;2.92;;;;;20.10;96957.00;;;;8268760;28;20198;-69
2022/06/11 19:47:02;;;;;;;2.95;2.40;;;;;19.90;96962.00;;;;8265926;28;20298;-69
2022/06/11 19:51:05;;;;;;;8.05;2.88;;;;;19.70;96970.00;;;;8274702;28;20616;-69
2022/06/11 19:55:10;;;;;;;4.38;2.50;;;;;19.50;96971.00;;;;8271659;28;20942;-68
2022/06/11 19:59:14;;;;;;;4.45;2.75;;;;;19.30;96961.00;;;;8270585;28;20209;-69
2022/06/11 20:03:19;;;;;;;4.93;2.83;;;;;19.20;96970.00;;;;8272657;28;20308;-70
2022/06/11 20:07:23;;;;;;;7.38;2.97;;;;;19.10;96964.00;;;;8276560;28;20555;-68
2022/06/11 20:11:29;;;;;;;5.45;3.00;;;;;18.90;96971.00;;;;8270126;28;20946;-68
2022/06/11 20:15:32;;;;;;;4.05;3.40;;;;;18.70;96976.00;;;;8275442;28;20262;-69
2022/06/11 20:19:37;;;;;;;5.25;3.05;;;;;18.60;96979.00;;;;8271841;28;20198;-71
2022/06/11 20:23:41;;;;;;;4.88;2.75;;;;;18.50;96967.00;;;;8270775;28;20217;-68
2022/06/11 20:27:44;;;;;;;4.35;3.35;;;;;18.50;96968.00;;;;8270300;28;20202;-68
2022/06/11 20:31:48;;;;;;;7.97;4.22;;;;;18.50;96970.00;;;;8269876;28;20199;-70
2022/06/11 20:35:52;;;;;;;6.53;3.42;;;;;18.40;96981.00;;;;8269846;28;20329;-70
2022/06/11 20:39:56;;;;;;;8.82;3.75;;;;;18.50;96979.00;;;;8268986;28;20245;-69
2022/06/11 20:43:59;;;;;;;7.18;4.53;;;;;18.40;96976.00;;;;8272949;28;20225;-68
2022/06/11 20:48:02;;;;;;;5.90;3.83;;;;;18.40;96969.00;;;;8269158;28;20194;-69
2022/06/11 20:52:07;;;;;;;8.27;4.18;;;;;18.40;96973.00;;;;8271088;28;20664;-69
2022/06/11 20:56:11;;;;;;;7.05;3.58;;;;;18.50;96977.00;;;;8269978;28;20264;-68
2022/06/11 21:00:16;;;;;;;3.80;3.58;;;;;18.50;96977.00;;;;8270587;28;20209;-68
2022/06/11 21:04:19;;;;;;;9.80;3.92;;;;;18.50;96981.00;;;;8270099;28;20234;-70
2022/06/11 21:12:45;;;;;;;4.88;3.85;;;;;18.30;96978.00;;;;8269538;28;20289;-69